Time;durP1;ratioP1;P1;durP2;ratioP2;P2;SDS_P1;SDS_P2;PMS_P1;PMS_P2;Temp;Humidity;BMP_temperature;BMP_pressure;BME280_temperature;BME280_humidity;BME280_pressure;Samples;Min_cycle;Max_cycle;Signal;HPM_P1;HPM_P2
2021/05/25 00:00:26;;;;;;;4.25;1.75;;;9.90;99.90;;;;;;5064013;28;20556;-72
2021/05/25 00:02:52;;;;;;;4.15;2.00;;;10.00;99.90;;;;;;5071577;28;20036;-73
2021/05/25 00:05:26;;;;;;;4.30;1.85;;;9.80;99.90;;;;;;5079067;28;20031;-72
2021/05/25 00:07:52;;;;;;;5.03;2.15;;;9.90;99.90;;;;;;5079754;28;20043;-72
2021/05/25 00:10:17;;;;;;;4.78;2.20;;;9.90;99.90;;;;;;5080594;28;20135;-72
2021/05/25 00:12:46;;;;;;;4.45;1.90;;;9.90;99.90;;;;;;5080162;28;20359;-72
2021/05/25 00:15:17;;;;;;;4.63;2.13;;;9.90;99.90;;;;;;5075851;28;20039;-72
2021/05/25 00:17:42;;;;;;;4.90;2.10;;;9.90;99.90;;;;;;5070887;28;20028;-72
2021/05/25 00:20:13;;;;;;;5.57;2.22;;;9.80;99.90;;;;;;5068841;28;20024;-72
2021/05/25 00:22:41;;;;;;;3.85;1.90;;;9.70;99.90;;;;;;5073208;28;20518;-71
2021/05/25 00:25:08;;;;;;;4.60;2.10;;;9.70;99.90;;;;;;5054192;28;20646;-72
2021/05/25 00:27:34;;;;;;;5.00;2.03;;;9.70;99.90;;;;;;5070223;28;22037;-72
2021/05/25 00:30:02;;;;;;;5.15;2.00;;;9.70;99.90;;;;;;5069011;28;20032;-72
2021/05/25 00:32:28;;;;;;;3.83;2.00;;;9.80;99.90;;;;;;5068764;28;20031;-72
2021/05/25 00:34:54;;;;;;;5.70;2.10;;;9.70;99.90;;;;;;5071647;28;20063;-73
2021/05/25 00:37:22;;;;;;;6.63;2.17;;;9.50;99.90;;;;;;5071790;28;20036;-71
2021/05/25 00:39:47;;;;;;;4.40;2.00;;;9.70;99.90;;;;;;5070110;28;20063;-72
2021/05/25 00:42:18;;;;;;;5.22;2.03;;;9.70;99.90;;;;;;5069535;28;20119;-72
2021/05/25 00:44:43;;;;;;;4.18;1.92;;;9.70;99.90;;;;;;5070034;28;20377;-72
2021/05/25 00:47:11;;;;;;;4.85;2.03;;;9.70;99.90;;;;;;5069852;28;20039;-72
2021/05/25 00:49:36;;;;;;;4.72;1.88;;;9.70;99.90;;;;;;5069654;28;20024;-73
2021/05/25 00:52:02;;;;;;;4.43;1.95;;;9.60;99.90;;;;;;5068297;28;20487;-72
2021/05/25 00:54:30;;;;;;;6.60;2.47;;;9.60;99.90;;;;;;5068686;28;20035;-72
2021/05/25 00:56:57;;;;;;;3.80;1.95;;;9.40;99.90;;;;;;5070430;28;20039;-72
2021/05/25 00:59:28;;;;;;;4.30;1.70;;;9.40;99.90;;;;;;5068746;28;20072;-73
2021/05/25 01:01:53;;;;;;;5.35;2.05;;;9.30;99.90;;;;;;5068789;28;20726;-73
2021/05/25 01:04:21;;;;;;;3.38;1.70;;;9.30;99.90;;;;;;5055091;28;20059;-72
2021/05/25 01:06:47;;;;;;;5.32;1.63;;;9.30;99.90;;;;;;5067902;28;20032;-72
2021/05/25 01:09:17;;;;;;;4.43;2.15;;;9.30;99.90;;;;;;5070830;28;20040;-72
2021/05/25 01:11:46;;;;;;;3.88;1.90;;;9.20;99.90;;;;;;5071047;28;20032;-70
2021/05/25 01:14:12;;;;;;;4.93;1.90;;;9.20;99.90;;;;;;5057688;28;20027;-71
2021/05/25 01:16:40;;;;;;;3.50;1.92;;;9.20;99.90;;;;;;5068665;28;20766;-72
2021/05/25 01:19:09;;;;;;;4.18;1.80;;;9.10;99.90;;;;;;5073760;28;20728;-71
2021/05/25 01:21:40;;;;;;;6.63;2.00;;;9.10;99.90;;;;;;5078551;28;20075;-71
2021/05/25 01:24:06;;;;;;;4.93;1.90;;;9.10;99.90;;;;;;5061110;28;20036;-72
2021/05/25 01:26:34;;;;;;;4.35;1.92;;;9.10;99.90;;;;;;5078936;28;20054;-71
2021/05/25 01:28:59;;;;;;;3.95;2.00;;;9.10;99.90;;;;;;5079564;28;20101;-71
2021/05/25 01:31:25;;;;;;;5.30;1.88;;;9.00;99.90;;;;;;5079091;28;20028;-72
2021/05/25 01:33:53;;;;;;;6.28;2.03;;;9.00;99.90;;;;;;5071262;28;20042;-71
2021/05/25 01:36:21;;;;;;;4.05;1.90;;;9.00;99.90;;;;;;5070279;28;20043;-71
2021/05/25 01:38:46;;;;;;;3.42;1.80;;;8.90;99.90;;;;;;5070791;28;20464;-72
2021/05/25 01:41:12;;;;;;;5.82;2.22;;;9.00;99.90;;;;;;5070837;28;20036;-71
2021/05/25 01:43:38;;;;;;;4.45;2.05;;;9.00;99.90;;;;;;5067511;28;20033;-71
2021/05/25 01:46:08;;;;;;;4.95;2.28;;;9.00;99.90;;;;;;5070338;28;20028;-71
2021/05/25 01:48:34;;;;;;;6.13;2.20;;;9.00;99.90;;;;;;5069732;28;20613;-71
2021/05/25 01:51:02;;;;;;;5.57;2.20;;;8.90;99.90;;;;;;5070837;28;20043;-71
2021/05/25 01:53:28;;;;;;;6.38;2.35;;;8.90;99.90;;;;;;5069630;28;20028;-71
2021/05/25 01:55:55;;;;;;;3.28;2.10;;;8.80;99.90;;;;;;5069280;28;20463;-71
2021/05/25 01:58:24;;;;;;;5.35;2.20;;;8.80;99.90;;;;;;5068843;28;20035;-71
2021/05/25 02:00:59;;;;;;;4.30;2.20;;;8.80;99.90;;;;;;5069299;28;20039;-71
2021/05/25 02:03:25;;;;;;;4.65;2.60;;;8.80;99.90;;;;;;5072257;28;20622;-71
2021/05/25 02:05:50;;;;;;;5.95;2.28;;;8.90;99.90;;;;;;5067727;28;20532;-71
2021/05/25 02:08:17;;;;;;;6.00;2.38;;;8.80;99.90;;;;;;5067507;28;20024;-71
2021/05/25 02:10:50;;;;;;;6.07;2.60;;;8.80;99.90;;;;;;5053004;28;20032;-72
2021/05/25 02:13:23;;;;;;;5.38;2.30;;;8.70;99.90;;;;;;5069324;28;20032;-71
2021/05/25 02:15:51;;;;;;;4.28;2.22;;;8.80;99.90;;;;;;5069651;28;20159;-71
2021/05/25 02:18:27;;;;;;;4.80;2.35;;;8.80;99.90;;;;;;5072976;28;20174;-71
2021/05/25 02:20:54;;;;;;;5.35;2.40;;;8.80;99.90;;;;;;5068354;28;20108;-71
2021/05/25 02:23:25;;;;;;;5.80;2.35;;;8.70;99.90;;;;;;5054800;28;20385;-71
2021/05/25 02:25:52;;;;;;;5.22;2.30;;;8.60;99.90;;;;;;5076791;28;20032;-72
2021/05/25 02:28:18;;;;;;;4.82;2.30;;;8.60;99.90;;;;;;5078672;28;20541;-72
2021/05/25 02:30:44;;;;;;;7.28;2.22;;;8.60;99.90;;;;;;5076315;28;20115;-71
2021/05/25 02:33:14;;;;;;;6.88;2.50;;;8.60;99.90;;;;;;5076651;28;20044;-71
2021/05/25 02:35:40;;;;;;;4.22;2.10;;;8.60;99.90;;;;;;5078992;28;20124;-70
2021/05/25 02:38:09;;;;;;;6.65;2.75;;;8.70;99.90;;;;;;5080500;28;20016;-71
2021/05/25 02:40:37;;;;;;;5.60;2.60;;;8.70;99.90;;;;;;5081310;28;20036;-70
2021/05/25 02:43:03;;;;;;;6.38;2.92;;;8.70;99.90;;;;;;5075900;28;20039;-71
2021/05/25 02:45:29;;;;;;;4.70;2.20;;;8.70;99.90;;;;;;5076956;28;20024;-71
2021/05/25 02:47:54;;;;;;;5.63;2.20;;;8.70;99.90;;;;;;5076745;28;20031;-70
2021/05/25 02:50:20;;;;;;;4.10;2.20;;;8.70;99.90;;;;;;5076507;28;20044;-71
2021/05/25 02:52:49;;;;;;;5.75;2.20;;;8.70;99.90;;;;;;5068584;28;20666;-70
2021/05/25 02:55:25;;;;;;;5.20;2.10;;;8.70;99.90;;;;;;5069762;28;20402;-71
2021/05/25 02:57:53;;;;;;;3.88;2.00;;;8.80;99.90;;;;;;5072362;28;20025;-71
2021/05/25 03:00:27;;;;;;;4.97;2.20;;;8.70;99.90;;;;;;5080294;28;20442;-71
2021/05/25 03:02:52;;;;;;;4.22;2.10;;;8.70;99.90;;;;;;5076416;28;20102;-71
2021/05/25 03:05:18;;;;;;;4.85;2.20;;;8.70;99.90;;;;;;5069874;28;20048;-70
2021/05/25 03:07:44;;;;;;;5.53;2.20;;;8.80;99.90;;;;;;5068972;28;20032;-71
2021/05/25 03:10:12;;;;;;;4.65;2.10;;;8.80;99.90;;;;;;5067458;28;20051;-72
2021/05/25 03:12:38;;;;;;;4.60;2.00;;;8.70;99.90;;;;;;5054978;28;20040;-71
2021/05/25 03:15:05;;;;;;;4.35;1.92;;;8.70;99.90;;;;;;5072574;28;20035;-70
2021/05/25 03:17:31;;;;;;;5.32;1.90;;;8.80;99.90;;;;;;5068793;28;20111;-70
2021/05/25 03:19:58;;;;;;;6.25;2.47;;;8.80;99.90;;;;;;5072450;28;20028;-71
2021/05/25 03:22:24;;;;;;;4.65;2.20;;;8.80;99.90;;;;;;5060842;28;20477;-72
2021/05/25 03:24:50;;;;;;;6.15;2.10;;;8.80;99.90;;;;;;5072284;28;20083;-71
2021/05/25 03:27:20;;;;;;;5.53;2.10;;;8.80;99.90;;;;;;5072044;28;20169;-71
2021/05/25 03:29:47;;;;;;;3.97;2.00;;;8.80;99.90;;;;;;5071176;28;20062;-70
2021/05/25 03:32:13;;;;;;;3.55;1.85;;;8.80;99.90;;;;;;5072343;28;20365;-71
2021/05/25 03:34:41;;;;;;;4.75;2.00;;;8.80;99.90;;;;;;5071647;28;20028;-71
2021/05/25 03:37:07;;;;;;;4.05;1.90;;;8.80;99.90;;;;;;5071226;28;20556;-71
2021/05/25 03:39:32;;;;;;;5.43;2.03;;;8.70;99.90;;;;;;5072616;28;20033;-71
2021/05/25 03:41:59;;;;;;;5.07;2.08;;;8.70;99.90;;;;;;5073346;28;20070;-71
2021/05/25 03:44:27;;;;;;;6.22;2.30;;;8.70;99.90;;;;;;5079801;28;20119;-71
2021/05/25 03:46:53;;;;;;;5.63;2.10;;;8.80;99.90;;;;;;5078280;28;20040;-71
2021/05/25 03:49:19;;;;;;;5.10;2.08;;;8.80;99.90;;;;;;5070123;28;20100;-71
2021/05/25 03:51:45;;;;;;;7.10;2.40;;;8.80;99.90;;;;;;5070003;28;20043;-71
2021/05/25 03:54:30;;;;;;;5.05;2.20;;;8.80;99.90;;;;;;5071668;28;20020;-72
2021/05/25 03:57:03;;;;;;;5.15;2.30;;;8.80;99.90;;;;;;5080716;28;20028;-71
2021/05/25 03:59:31;;;;;;;6.13;2.30;;;8.70;99.90;;;;;;5079217;28;20111;-70
2021/05/25 04:01:57;;;;;;;4.95;2.20;;;8.70;99.90;;;;;;5078742;28;20096;-70
2021/05/25 04:04:23;;;;;;;5.25;2.40;;;8.70;99.90;;;;;;5070206;28;20032;-71
2021/05/25 04:06:51;;;;;;;3.85;2.20;;;8.60;99.90;;;;;;5087264;28;20125;-70
2021/05/25 04:09:19;;;;;;;6.15;2.38;;;8.60;99.90;;;;;;5071698;28;20556;-70
2021/05/25 04:11:44;;;;;;;5.60;2.30;;;8.70;99.90;;;;;;5071175;28;20092;-71
2021/05/25 04:14:12;;;;;;;7.90;2.10;;;8.60;99.90;;;;;;5053749;28;20028;-71
2021/05/25 04:16:40;;;;;;;4.68;2.50;;;8.70;99.90;;;;;;5071782;28;20111;-71
2021/05/25 04:19:10;;;;;;;4.57;2.30;;;8.70;99.90;;;;;;5071336;28;20471;-70
2021/05/25 04:21:36;;;;;;;5.22;1.90;;;8.70;99.90;;;;;;5071534;28;21442;-71
2021/05/25 04:24:02;;;;;;;5.72;2.15;;;8.70;99.90;;;;;;5070734;28;20645;-70
2021/05/25 04:26:30;;;;;;;6.75;2.00;;;8.70;99.90;;;;;;5059845;28;20129;-72
2021/05/25 04:28:58;;;;;;;4.22;1.90;;;8.70;99.90;;;;;;5054726;28;20044;-71
2021/05/25 04:31:24;;;;;;;4.63;1.80;;;8.70;99.90;;;;;;5069999;28;20036;-71
2021/05/25 04:33:50;;;;;;;5.40;2.05;;;8.70;99.90;;;;;;5063399;28;20587;-71
2021/05/25 04:36:21;;;;;;;4.90;1.83;;;8.60;99.90;;;;;;5070956;28;20029;-71
2021/05/25 04:38:49;;;;;;;4.45;1.70;;;8.70;99.90;;;;;;5040860;28;20093;-71
2021/05/25 04:41:15;;;;;;;3.75;1.55;;;8.60;99.90;;;;;;5068833;28;20506;-71
2021/05/25 04:43:40;;;;;;;4.20;1.92;;;8.60;99.90;;;;;;5070216;28;20032;-71
2021/05/25 04:46:08;;;;;;;3.38;1.75;;;8.60;99.90;;;;;;5072031;28;20149;-71
2021/05/25 04:48:34;;;;;;;5.25;1.80;;;8.50;99.90;;;;;;5069118;28;20029;-72
2021/05/25 04:50:59;;;;;;;4.95;1.92;;;8.50;99.90;;;;;;5076306;28;20025;-71
2021/05/25 04:53:27;;;;;;;4.55;1.80;;;8.50;99.90;;;;;;5081375;28;20029;-71
2021/05/25 04:55:53;;;;;;;5.57;2.00;;;8.60;99.90;;;;;;5069250;28;20412;-71
2021/05/25 04:58:18;;;;;;;4.65;1.60;;;8.50;99.90;;;;;;5070732;28;20036;-72
2021/05/25 05:00:45;;;;;;;3.97;1.80;;;8.60;99.90;;;;;;5070589;28;20020;-71
2021/05/25 05:03:10;;;;;;;6.57;2.00;;;8.70;99.90;;;;;;5079231;28;20142;-71
2021/05/25 05:05:36;;;;;;;6.03;2.03;;;8.60;99.90;;;;;;5080483;28;20146;-74
2021/05/25 05:08:02;;;;;;;4.43;1.80;;;8.50;99.90;;;;;;5077887;28;20040;-72
2021/05/25 05:10:30;;;;;;;4.72;1.60;;;8.50;99.90;;;;;;5060732;28;20046;-71
2021/05/25 05:12:57;;;;;;;6.47;1.98;;;8.50;99.90;;;;;;5078189;28;20064;-71
2021/05/25 05:15:23;;;;;;;5.25;2.28;;;8.50;99.90;;;;;;5079433;28;20025;-72
2021/05/25 05:17:49;;;;;;;4.10;1.70;;;8.50;99.90;;;;;;5077928;28;21873;-71
2021/05/25 05:20:20;;;;;;;5.47;1.80;;;8.50;99.90;;;;;;5059629;28;20032;-71
2021/05/25 05:22:46;;;;;;;4.50;1.73;;;8.50;99.90;;;;;;5068768;28;20048;-71
2021/05/25 05:25:15;;;;;;;5.90;1.70;;;8.50;99.90;;;;;;5068206;28;20042;-71
2021/05/25 05:27:40;;;;;;;4.43;1.90;;;8.50;99.90;;;;;;5068873;28;20154;-71
2021/05/25 05:30:09;;;;;;;4.25;1.75;;;8.50;99.90;;;;;;5070111;28;20062;-71
2021/05/25 05:32:35;;;;;;;4.95;1.60;;;8.50;99.90;;;;;;5068538;28;20063;-71
2021/05/25 05:35:00;;;;;;;4.22;1.40;;;8.50;99.90;;;;;;5069186;28;20161;-71
2021/05/25 05:37:26;;;;;;;4.22;1.80;;;8.50;99.90;;;;;;5067820;28;20171;-71
2021/05/25 05:39:52;;;;;;;3.45;1.50;;;8.50;99.90;;;;;;5074499;28;20519;-71
2021/05/25 05:42:20;;;;;;;4.20;1.58;;;8.50;99.90;;;;;;5079508;28;20482;-71
2021/05/25 05:44:48;;;;;;;3.67;1.75;;;8.40;99.90;;;;;;5077428;28;20039;-70
2021/05/25 05:47:16;;;;;;;6.00;1.63;;;8.30;99.90;;;;;;5077967;28;20931;-70
2021/05/25 05:49:43;;;;;;;3.10;1.50;;;8.40;99.90;;;;;;5069987;28;20064;-72
2021/05/25 05:52:11;;;;;;;3.42;1.60;;;8.40;99.90;;;;;;5072642;28;20043;-73
2021/05/25 05:54:37;;;;;;;4.43;1.60;;;8.40;99.90;;;;;;5078710;28;20024;-72
2021/05/25 05:57:05;;;;;;;3.63;1.50;;;8.40;99.90;;;;;;5072323;28;20039;-71
2021/05/25 05:59:31;;;;;;;4.32;1.40;;;8.40;99.90;;;;;;5077521;28;20052;-71
2021/05/25 06:02:01;;;;;;;4.65;1.90;;;8.50;99.90;;;;;;5076234;28;20071;-72
2021/05/25 06:04:28;;;;;;;6.20;1.50;;;8.50;99.90;;;;;;5068753;28;20039;-73
2021/05/25 06:06:54;;;;;;;4.20;1.70;;;8.60;99.90;;;;;;5065595;28;20039;-72
2021/05/25 06:09:19;;;;;;;3.22;1.30;;;8.70;99.90;;;;;;5077391;28;20024;-72
2021/05/25 06:11:52;;;;;;;2.60;1.30;;;8.80;99.90;;;;;;5080338;28;20039;-71
2021/05/25 06:14:18;;;;;;;3.95;1.40;;;8.70;99.90;;;;;;5078292;28;20035;-71
2021/05/25 06:16:46;;;;;;;3.67;1.45;;;8.80;99.90;;;;;;5073584;28;20481;-70
2021/05/25 06:19:13;;;;;;;2.42;1.27;;;8.80;99.90;;;;;;5061803;28;20052;-72
2021/05/25 06:21:38;;;;;;;3.13;1.52;;;8.80;99.90;;;;;;5079353;28;20333;-71
2021/05/25 06:24:07;;;;;;;3.22;1.20;;;8.70;99.90;;;;;;5085739;28;20047;-72
2021/05/25 06:26:33;;;;;;;3.78;1.63;;;8.80;99.90;;;;;;5079286;28;20049;-73
2021/05/25 06:28:58;;;;;;;3.72;1.55;;;8.80;99.90;;;;;;5076139;28;20441;-73
2021/05/25 06:31:26;;;;;;;3.72;1.60;;;8.80;99.90;;;;;;5060953;28;20036;-71
2021/05/25 06:33:52;;;;;;;2.88;1.38;;;8.80;99.90;;;;;;5078147;28;20366;-71
2021/05/25 06:36:17;;;;;;;4.15;1.67;;;8.80;99.90;;;;;;5078573;28;20020;-72
2021/05/25 06:38:43;;;;;;;2.28;1.35;;;8.80;99.90;;;;;;5079465;28;20020;-71
2021/05/25 06:41:11;;;;;;;4.32;1.50;;;8.90;99.90;;;;;;5079068;28;20068;-71
2021/05/25 06:43:37;;;;;;;3.67;1.38;;;8.90;99.90;;;;;;5077810;28;20520;-71
2021/05/25 06:46:04;;;;;;;3.83;1.40;;;8.80;99.90;;;;;;5078715;28;20035;-71
2021/05/25 06:48:31;;;;;;;2.97;1.55;;;8.70;99.90;;;;;;5078096;28;20020;-72
2021/05/25 06:50:58;;;;;;;2.72;1.08;;;8.70;99.90;;;;;;5078260;28;20035;-71
2021/05/25 06:53:27;;;;;;;3.30;1.40;;;8.70;99.90;;;;;;5079086;28;20019;-73
2021/05/25 06:55:55;;;;;;;2.42;1.30;;;8.70;99.90;;;;;;5076610;28;20032;-71
2021/05/25 06:58:25;;;;;;;2.20;1.23;;;8.70;99.90;;;;;;5076581;28;20016;-71
2021/05/25 07:00:53;;;;;;;2.28;1.30;;;8.60;99.90;;;;;;5077113;28;20019;-71
2021/05/25 07:03:18;;;;;;;2.35;1.10;;;8.70;99.90;;;;;;5075414;28;20037;-71
2021/05/25 07:05:46;;;;;;;3.13;1.20;;;8.90;99.90;;;;;;5076664;28;20036;-71
2021/05/25 07:08:12;;;;;;;2.45;1.13;;;9.00;99.90;;;;;;5079960;28;20088;-71
2021/05/25 07:10:37;;;;;;;3.60;1.30;;;9.00;99.90;;;;;;5077573;28;20044;-71
2021/05/25 07:13:07;;;;;;;2.75;1.25;;;8.90;99.90;;;;;;5060692;28;20078;-70
2021/05/25 07:15:33;;;;;;;1.75;1.00;;;9.10;99.90;;;;;;5079233;28;20033;-72
2021/05/25 07:18:03;;;;;;;3.90;1.38;;;9.00;99.90;;;;;;5078099;28;20020;-72
2021/05/25 07:20:29;;;;;;;1.98;1.10;;;9.00;99.90;;;;;;5075703;28;20024;-70
2021/05/25 07:22:54;;;;;;;2.63;1.10;;;9.00;99.90;;;;;;5076178;28;20512;-71
2021/05/25 07:25:21;;;;;;;3.00;1.30;;;9.10;99.90;;;;;;5059203;28;20036;-71
2021/05/25 07:27:47;;;;;;;1.98;1.20;;;9.00;99.90;;;;;;5076284;28;20035;-71
2021/05/25 07:30:15;;;;;;;3.30;1.27;;;9.00;99.90;;;;;;5079123;28;20043;-71
2021/05/25 07:32:44;;;;;;;1.80;1.25;;;9.00;99.90;;;;;;5076944;28;20033;-71
2021/05/25 07:35:13;;;;;;;2.03;1.40;;;9.00;99.90;;;;;;5075666;28;20031;-71
2021/05/25 07:37:39;;;;;;;1.85;1.27;;;9.00;99.90;;;;;;5078486;28;20025;-71
2021/05/25 07:40:11;;;;;;;3.25;1.60;;;9.00;99.90;;;;;;5063706;28;20475;-71
2021/05/25 07:42:37;;;;;;;3.05;1.60;;;8.90;99.90;;;;;;5075953;28;20033;-71
2021/05/25 07:45:03;;;;;;;3.38;1.60;;;8.90;99.90;;;;;;5058669;28;20464;-71
2021/05/25 07:47:32;;;;;;;3.63;1.70;;;8.90;99.90;;;;;;5073600;28;20111;-71
2021/05/25 07:50:13;;;;;;;3.78;1.70;;;8.90;99.90;;;;;;5067483;28;20355;-71
2021/05/25 07:52:45;;;;;;;2.55;1.50;;;8.90;99.90;;;;;;5077887;28;20044;-71
2021/05/25 07:55:13;;;;;;;;;;;8.90;99.90;;;;;;5080143;28;20020;-70
2021/05/25 07:57:41;;;;;;;1.95;1.40;;;8.90;99.90;;;;;;5078373;28;20368;-71
2021/05/25 08:00:11;;;;;;;2.78;1.50;;;8.90;99.90;;;;;;5079683;28;20095;-70
2021/05/25 08:02:40;;;;;;;3.97;1.70;;;8.90;99.90;;;;;;5081611;28;20028;-71
2021/05/25 08:05:08;;;;;;;1.77;1.60;;;9.00;99.90;;;;;;5078275;28;20461;-71
2021/05/25 08:07:34;;;;;;;3.75;1.40;;;9.00;99.90;;;;;;5077476;28;20117;-71
2021/05/25 08:10:00;;;;;;;2.40;1.35;;;9.00;99.90;;;;;;5078011;28;20055;-70
2021/05/25 08:12:25;;;;;;;1.65;1.25;;;8.90;99.90;;;;;;5080663;28;20024;-70
2021/05/25 08:14:52;;;;;;;4.07;1.50;;;8.90;99.90;;;;;;5082890;28;20054;-70
2021/05/25 08:17:34;;;;;;;2.65;1.38;;;9.00;99.90;;;;;;5083039;28;20077;-70
2021/05/25 08:20:18;;;;;;;3.08;1.35;;;9.00;99.90;;;;;;5078705;28;20051;-70
2021/05/25 08:22:47;;;;;;;3.25;1.30;;;9.10;99.90;;;;;;5079360;28;20504;-75
2021/05/25 08:25:16;;;;;;;4.80;2.67;;;9.10;99.90;;;;;;5080124;28;20032;-74
2021/05/25 08:27:42;;;;;;;2.92;1.50;;;9.20;99.90;;;;;;5082928;28;20036;-70
2021/05/25 08:30:10;;;;;;;2.45;1.20;;;9.30;99.90;;;;;;5082654;28;20035;-71
2021/05/25 08:32:36;;;;;;;2.17;1.15;;;9.30;99.90;;;;;;5076026;28;20028;-70
2021/05/25 08:35:02;;;;;;;2.50;1.20;;;9.40;99.90;;;;;;5067276;28;20052;-71
2021/05/25 08:37:32;;;;;;;3.40;1.20;;;9.30;99.90;;;;;;5079392;28;20043;-72
2021/05/25 08:39:58;;;;;;;2.53;1.10;;;9.20;99.90;;;;;;5081654;28;20017;-71
2021/05/25 08:42:26;;;;;;;1.42;1.05;;;9.20;99.90;;;;;;5069564;28;20032;-70
2021/05/25 08:44:51;;;;;;;1.80;1.00;;;9.20;99.90;;;;;;5078048;28;20036;-71
2021/05/25 08:47:17;;;;;;;1.83;1.20;;;9.20;99.90;;;;;;5079270;28;20578;-71
2021/05/25 08:49:43;;;;;;;1.15;0.85;;;9.20;99.90;;;;;;5080437;28;20032;-72
2021/05/25 08:52:10;;;;;;;1.52;1.00;;;9.20;99.90;;;;;;5078186;28;20032;-72
2021/05/25 08:54:39;;;;;;;1.50;0.98;;;9.20;99.90;;;;;;5079743;28;20108;-71
2021/05/25 08:57:05;;;;;;;1.83;0.93;;;9.30;99.90;;;;;;5078403;28;20020;-71
2021/05/25 08:59:33;;;;;;;1.25;1.00;;;9.30;99.90;;;;;;5079721;28;20028;-71
2021/05/25 09:01:59;;;;;;;3.85;1.23;;;9.40;99.90;;;;;;5080453;28;20482;-71
2021/05/25 09:04:24;;;;;;;3.30;1.10;;;9.40;99.90;;;;;;5079048;28;20025;-71
2021/05/25 09:06:52;;;;;;;1.85;1.40;;;9.50;99.90;;;;;;5082046;28;20042;-72
2021/05/25 09:09:21;;;;;;;1.65;0.98;;;9.50;99.90;;;;;;5081197;28;20609;-71
2021/05/25 09:12:04;;;;;;;1.67;1.10;;;9.60;99.90;;;;;;5077690;28;20035;-71
2021/05/25 09:14:32;;;;;;;1.48;1.00;;;9.70;99.90;;;;;;5081045;28;20027;-71
2021/05/25 09:17:25;;;;;;;2.85;1.20;;;9.70;99.90;;;;;;5080265;28;20042;-71
2021/05/25 09:19:52;;;;;;;1.75;1.10;;;9.70;99.90;;;;;;5077813;28;20035;-71
2021/05/25 09:22:40;;;;;;;1.27;0.88;;;9.80;99.90;;;;;;5077874;28;20068;-72
2021/05/25 09:25:14;;;;;;;2.47;1.10;;;9.80;99.90;;;;;;5095353;27;20056;-73
2021/05/25 09:27:42;;;;;;;1.95;1.20;;;9.90;99.90;;;;;;5071459;28;20101;-71
2021/05/25 09:30:30;;;;;;;1.55;0.88;;;9.80;99.90;;;;;;5076951;28;20135;-71
2021/05/25 09:33:09;;;;;;;5.57;1.20;;;9.70;99.90;;;;;;5081962;28;20024;-71
2021/05/25 09:35:36;;;;;;;2.25;1.08;;;9.60;99.90;;;;;;5079585;28;20031;-71
2021/05/25 09:38:08;;;;;;;0.90;0.80;;;9.70;99.90;;;;;;5082531;28;20029;-72
2021/05/25 09:40:35;;;;;;;0.73;0.73;;;9.60;99.90;;;;;;5078459;28;20119;-71
2021/05/25 09:43:21;;;;;;;2.65;0.98;;;9.60;99.90;;;;;;5079728;28;20039;-71
2021/05/25 09:46:10;;;;;;;1.92;0.80;;;9.70;99.90;;;;;;5080393;28;20034;-71
2021/05/25 09:48:45;;;;;;;2.92;0.93;;;9.60;99.90;;;;;;5079047;28;20021;-72
2021/05/25 09:51:23;;;;;;;2.97;0.90;;;9.60;99.90;;;;;;5079910;28;20499;-73
2021/05/25 09:53:51;;;;;;;2.75;1.10;;;9.70;99.90;;;;;;5079966;28;20032;-71
2021/05/25 09:56:30;;;;;;;1.25;0.82;;;9.70;99.90;;;;;;5077522;28;20040;-72
2021/05/25 09:58:56;;;;;;;2.05;0.90;;;9.80;99.90;;;;;;5078927;28;20028;-72
2021/05/25 10:01:37;;;;;;;1.00;0.82;;;9.70;99.90;;;;;;5080931;28;20036;-71
2021/05/25 10:04:13;;;;;;;1.80;0.95;;;9.90;99.90;;;;;;5065264;28;20358;-72
2021/05/25 10:06:43;;;;;;;3.17;0.98;;;10.00;99.90;;;;;;5078112;28;20017;-72
2021/05/25 10:09:14;;;;;;;2.28;1.33;;;10.00;99.90;;;;;;5079102;28;20119;-73
2021/05/25 10:11:44;;;;;;;1.90;0.70;;;10.20;99.90;;;;;;5077944;28;20020;-72
2021/05/25 10:14:10;;;;;;;1.73;0.80;;;10.40;99.90;;;;;;5075578;28;20020;-72
2021/05/25 10:16:42;;;;;;;1.50;0.95;;;10.40;99.90;;;;;;5079219;28;20027;-73
2021/05/25 10:21:39;;;;;;;1.83;1.00;;;10.30;99.90;;;;;;5078209;28;20028;-73
2021/05/25 10:24:07;;;;;;;1.60;1.00;;;10.50;99.90;;;;;;5076417;28;20040;-71
2021/05/25 10:26:34;;;;;;;1.58;1.00;;;10.50;99.90;;;;;;4375533;28;10000657;-72
2021/05/25 10:29:04;;;;;;;1.67;1.00;;;10.70;99.90;;;;;;5075630;28;20078;-72
2021/05/25 10:31:43;;;;;;;2.08;1.20;;;10.70;99.90;;;;;;5074199;28;20021;-72
2021/05/25 10:34:17;;;;;;;3.22;1.17;;;10.80;99.90;;;;;;5076292;28;20052;-71
2021/05/25 10:36:58;;;;;;;2.22;1.10;;;10.80;99.90;;;;;;5074349;28;20031;-71
2021/05/25 10:39:37;;;;;;;2.80;1.40;;;10.90;99.90;;;;;;5074056;28;20029;-72
2021/05/25 10:42:18;;;;;;;2.45;1.20;;;11.00;99.90;;;;;;5075650;28;20032;-73
2021/05/25 10:44:49;;;;;;;2.55;1.20;;;11.00;99.90;;;;;;5079656;28;20025;-72
2021/05/25 10:47:23;;;;;;;2.15;1.20;;;10.90;99.90;;;;;;5074897;28;20028;-71
2021/05/25 10:52:56;;;;;;;2.17;1.33;;;11.00;99.90;;;;;;5075197;28;20077;-72
2021/05/25 10:55:35;;;;;;;1.40;1.10;;;10.90;99.90;;;;;;5075534;28;20029;-71
2021/05/25 10:58:17;;;;;;;1.90;1.23;;;11.00;99.90;;;;;;5067283;28;20702;-71
2021/05/25 11:00:42;;;;;;;2.30;1.27;;;11.10;99.90;;;;;;5075186;28;20463;-73
2021/05/25 11:03:11;;;;;;;2.40;1.10;;;11.00;99.90;;;;;;5073553;28;20127;-74
2021/05/25 11:05:39;;;;;;;3.10;1.30;;;10.80;99.90;;;;;;5074238;28;20342;-72
2021/05/25 11:08:09;;;;;;;2.95;1.20;;;10.80;99.90;;;;;;5075139;28;20111;-72
2021/05/25 11:10:36;;;;;;;2.15;1.20;;;10.80;99.90;;;;;;5074316;28;20036;-74
2021/05/25 11:13:25;;;;;;;3.40;1.20;;;10.70;99.90;;;;;;5077631;28;20098;-73
2021/05/25 11:16:11;;;;;;;1.83;1.00;;;10.80;99.90;;;;;;5077267;28;20564;-73
2021/05/25 11:19:09;;;;;;;1.95;1.17;;;10.90;99.90;;;;;;5078437;28;20088;-72
2021/05/25 11:24:35;;;;;;;2.83;1.10;;;11.10;99.90;;;;;;5081590;28;20044;-72
2021/05/25 11:27:06;;;;;;;1.95;1.00;;;11.10;99.90;;;;;;5078599;28;20040;-72
2021/05/25 11:29:51;;;;;;;3.63;1.40;;;11.00;99.90;;;;;;5076035;28;20028;-72
2021/05/25 11:32:32;;;;;;;1.88;1.00;;;11.30;99.90;;;;;;5077073;28;20186;-72
2021/05/25 11:34:59;;;;;;;2.28;1.10;;;11.30;99.90;;;;;;5081615;28;20020;-72
2021/05/25 11:37:25;;;;;;;1.90;1.02;;;11.30;99.90;;;;;;5084093;28;20029;-72
2021/05/25 11:39:51;;;;;;;1.45;1.10;;;11.50;99.90;;;;;;5081678;28;20034;-72
2021/05/25 11:42:21;;;;;;;2.78;1.30;;;11.80;99.90;;;;;;5096931;28;20039;-72
2021/05/25 11:44:52;;;;;;;1.38;0.90;;;11.90;99.90;;;;;;5080858;28;20083;-72
2021/05/25 11:47:19;;;;;;;1.95;0.75;;;12.10;99.90;;;;;;5083168;28;20369;-72
2021/05/25 11:49:47;;;;;;;2.55;1.00;;;12.00;99.90;;;;;;5079416;28;20422;-73
2021/05/25 11:52:26;;;;;;;2.47;1.10;;;11.70;99.90;;;;;;5081644;28;20096;-71
2021/05/25 11:55:03;;;;;;;0.88;0.75;;;12.00;99.90;;;;;;5081043;28;20024;-71
2021/05/25 11:57:38;;;;;;;2.22;1.00;;;11.90;99.90;;;;;;5080838;28;20021;-71
2021/05/25 12:00:13;;;;;;;3.30;1.20;;;12.00;99.90;;;;;;5083070;28;20032;-72
2021/05/25 12:02:49;;;;;;;3.17;1.00;;;12.10;99.90;;;;;;5107818;28;20027;-71
2021/05/25 12:05:21;;;;;;;1.55;1.00;;;12.20;99.40;;;;;;5078284;28;20020;-72
2021/05/25 12:07:57;;;;;;;4.32;2.35;;;12.50;99.90;;;;;;5083008;28;20047;-73
2021/05/25 12:10:24;;;;;;;4.85;1.50;;;12.80;99.90;;;;;;5080800;28;20281;-73
2021/05/25 12:12:54;;;;;;;1.65;1.00;;;13.00;97.30;;;;;;5061051;28;20020;-71
2021/05/25 12:15:21;;;;;;;2.35;1.20;;;13.20;99.90;;;;;;5081112;28;20034;-72
2021/05/25 12:17:57;;;;;;;2.30;1.02;;;13.40;93.80;;;;;;5070400;28;20017;-72
2021/05/25 12:20:24;;;;;;;1.92;0.90;;;13.30;92.00;;;;;;5085653;28;20024;-72
2021/05/25 12:22:53;;;;;;;3.55;1.00;;;13.60;99.90;;;;;;5078928;28;20059;-71
2021/05/25 12:25:27;;;;;;;1.85;0.80;;;13.80;91.90;;;;;;5080332;28;20104;-73
2021/05/25 12:28:04;;;;;;;2.53;0.98;;;13.90;88.90;;;;;;5082875;28;20066;-72
2021/05/25 12:30:32;;;;;;;3.17;1.10;;;14.00;93.70;;;;;;5082984;28;20067;-74
2021/05/25 12:32:59;;;;;;;3.00;1.00;;;13.70;91.40;;;;;;5079802;28;20020;-72
2021/05/25 12:35:28;;;;;;;1.15;0.90;;;13.60;91.70;;;;;;5067627;28;20048;-71
2021/05/25 12:38:07;;;;;;;3.55;1.05;;;13.70;91.00;;;;;;5081023;28;20036;-72
2021/05/25 12:40:33;;;;;;;3.40;1.10;;;13.80;91.60;;;;;;5081564;28;20091;-72
2021/05/25 12:42:59;;;;;;;2.25;1.10;;;13.70;92.30;;;;;;5080403;28;20024;-72
2021/05/25 12:45:29;;;;;;;2.72;1.00;;;13.90;93.90;;;;;;5079220;28;20031;-71
2021/05/25 12:47:58;;;;;;;3.40;1.25;;;13.90;92.90;;;;;;5063294;28;20487;-73
2021/05/25 12:50:37;;;;;;;3.25;1.10;;;13.90;87.20;;;;;;5079843;28;20056;-72
2021/05/25 12:53:12;;;;;;;3.17;1.15;;;13.80;81.90;;;;;;5078920;28;20024;-72
2021/05/25 12:55:59;;;;;;;4.13;1.60;;;14.00;82.50;;;;;;5079920;28;20046;-71
2021/05/25 12:58:47;;;;;;;4.28;1.50;;;14.00;77.70;;;;;;5079735;28;20016;-71
2021/05/25 13:01:24;;;;;;;3.63;1.25;;;14.20;80.30;;;;;;5079786;28;20744;-71
2021/05/25 13:03:52;;;;;;;3.47;1.15;;;14.40;77.90;;;;;;5080019;28;20024;-72
2021/05/25 13:06:57;;;;;;;3.25;1.20;;;14.30;75.80;;;;;;5076609;28;20473;-72
2021/05/25 13:09:28;;;;;;;5.68;1.45;;;14.40;73.10;;;;;;5075240;28;20123;-73
2021/05/25 13:12:03;;;;;;;4.47;1.50;;;14.20;73.10;;;;;;5079336;28;20028;-72
2021/05/25 13:14:29;;;;;;;3.45;1.30;;;14.30;75.80;;;;;;5078225;28;20457;-71